Time;durP1;ratioP1;P1;durP2;ratioP2;P2;SDS_P1;SDS_P2;PMS_P1;PMS_P2;Temp;Humidity;BMP_temperature;BMP_pressure;BME280_temperature;BME280_humidity;BME280_pressure;Samples;Min_cycle;Max_cycle;Signal;HPM_P1;HPM_P2
2023/04/03 00:00:31;;;;;;;4.87;4.40;;;2.80;99.90;;;;;;477626;249;28041;-74
2023/04/03 00:02:32;;;;;;;6.35;5.18;;;2.80;99.90;;;;;;477613;249;27861;-74
2023/04/03 00:04:33;;;;;;;5.25;4.75;;;2.80;99.90;;;;;;477555;249;27468;-74
2023/04/03 00:06:35;;;;;;;4.87;4.18;;;2.80;99.90;;;;;;477658;249;27549;-74
2023/04/03 00:08:36;;;;;;;5.70;3.72;;;2.70;99.90;;;;;;477618;249;27401;-75
2023/04/03 00:10:37;;;;;;;4.93;4.10;;;2.60;99.90;;;;;;477645;249;27541;-74
2023/04/03 00:12:38;;;;;;;4.53;4.12;;;2.50;99.90;;;;;;477618;249;27401;-74
2023/04/03 00:14:39;;;;;;;6.12;4.97;;;2.40;99.90;;;;;;477521;249;27492;-74
2023/04/03 00:16:41;;;;;;;5.25;4.80;;;2.40;99.90;;;;;;477595;249;27469;-74
2023/04/03 00:18:42;;;;;;;4.80;4.40;;;2.30;99.90;;;;;;477643;249;27398;-74
2023/04/03 00:20:43;;;;;;;5.20;4.70;;;2.30;99.90;;;;;;477660;249;27479;-74
2023/04/03 00:22:44;;;;;;;5.95;4.20;;;2.20;99.90;;;;;;477634;249;27477;-74
2023/04/03 00:24:46;;;;;;;4.87;4.47;;;2.20;99.90;;;;;;477536;249;27909;-74
2023/04/03 00:26:47;;;;;;;6.70;4.40;;;2.10;99.90;;;;;;477620;249;28766;-74
2023/04/03 00:28:48;;;;;;;5.32;4.72;;;2.10;99.90;;;;;;477656;249;27916;-74
2023/04/03 00:30:49;;;;;;;6.35;4.50;;;2.10;99.90;;;;;;477621;249;27905;-74
2023/04/03 00:32:51;;;;;;;6.55;4.35;;;2.10;99.90;;;;;;477628;249;27441;-74
2023/04/03 00:34:52;;;;;;;5.60;4.10;;;2.10;99.90;;;;;;477521;249;27518;-74
2023/04/03 00:36:53;;;;;;;4.62;4.15;;;2.00;99.90;;;;;;477625;249;27497;-74
2023/04/03 00:38:54;;;;;;;6.15;4.78;;;2.00;99.90;;;;;;477649;249;27508;-74
2023/04/03 00:40:56;;;;;;;4.82;4.32;;;1.90;99.90;;;;;;477644;249;27457;-73
2023/04/03 00:42:57;;;;;;;5.35;4.00;;;1.90;99.90;;;;;;477581;249;27489;-74
2023/04/03 00:45:00;;;;;;;9.23;4.40;;;1.80;99.90;;;;;;477488;249;27444;-74
2023/04/03 00:46:59;;;;;;;4.30;3.80;;;1.80;99.90;;;;;;477538;249;27454;-74
2023/04/03 00:49:01;;;;;;;5.75;4.05;;;1.80;99.90;;;;;;477668;249;27535;-74
2023/04/03 00:51:02;;;;;;;4.15;3.78;;;1.70;99.90;;;;;;477634;249;27446;-74
2023/04/03 00:53:03;;;;;;;4.30;4.00;;;1.70;99.90;;;;;;477624;249;27856;-74
2023/04/03 00:55:04;;;;;;;4.28;3.85;;;1.70;99.90;;;;;;477474;249;27909;-74
2023/04/03 00:57:06;;;;;;;5.05;3.80;;;1.60;99.90;;;;;;477648;249;28085;-74
2023/04/03 00:59:07;;;;;;;4.68;4.20;;;1.50;99.90;;;;;;477659;249;27967;-74
2023/04/03 01:01:08;;;;;;;4.35;3.40;;;1.50;99.90;;;;;;477638;249;27567;-74
2023/04/03 01:03:10;;;;;;;5.37;4.05;;;1.50;99.90;;;;;;477655;249;27385;-74
2023/04/03 01:05:11;;;;;;;8.45;4.87;;;1.40;99.90;;;;;;477542;249;27501;-74
2023/04/03 01:07:12;;;;;;;4.68;4.22;;;1.40;99.90;;;;;;477640;249;27422;-75
2023/04/03 01:09:13;;;;;;;4.10;3.80;;;1.40;99.90;;;;;;477679;249;27462;-74
2023/04/03 01:11:14;;;;;;;5.90;4.62;;;1.40;99.90;;;;;;477661;249;27557;-74
2023/04/03 01:13:16;;;;;;;6.30;4.07;;;1.40;99.90;;;;;;477652;249;27476;-74
2023/04/03 01:15:17;;;;;;;4.75;3.90;;;1.40;99.90;;;;;;477574;249;27441;-74
2023/04/03 01:17:18;;;;;;;6.40;4.55;;;1.40;99.90;;;;;;477640;249;27398;-74
2023/04/03 01:19:20;;;;;;;5.40;4.43;;;1.40;99.90;;;;;;477663;249;27457;-74
2023/04/03 01:21:21;;;;;;;4.37;3.97;;;1.30;99.90;;;;;;477624;249;27973;-74
2023/04/03 01:23:22;;;;;;;3.58;3.37;;;1.30;99.90;;;;;;477631;249;27968;-74
2023/04/03 01:25:23;;;;;;;5.53;4.10;;;1.30;99.90;;;;;;477532;249;27912;-74
2023/04/03 01:27:24;;;;;;;8.40;4.37;;;1.30;99.90;;;;;;477643;249;28751;-74
2023/04/03 01:29:26;;;;;;;6.00;4.10;;;1.30;99.90;;;;;;477654;249;27394;-73
2023/04/03 01:31:27;;;;;;;8.38;4.10;;;1.20;99.90;;;;;;477631;249;27541;-74
2023/04/03 01:33:28;;;;;;;4.50;4.10;;;1.20;99.90;;;;;;477625;249;27477;-74
2023/04/03 01:35:29;;;;;;;4.12;3.78;;;1.20;99.90;;;;;;477549;249;27436;-74
2023/04/03 01:37:31;;;;;;;5.25;4.57;;;1.20;99.90;;;;;;477612;249;27429;-74
2023/04/03 01:39:32;;;;;;;5.05;3.72;;;1.10;99.90;;;;;;477647;249;27432;-73
2023/04/03 01:41:33;;;;;;;5.20;3.60;;;1.10;99.90;;;;;;477638;249;27469;-74
2023/04/03 01:43:34;;;;;;;5.45;4.07;;;1.10;99.90;;;;;;477624;249;27558;-74
2023/04/03 01:45:36;;;;;;;4.43;3.87;;;1.20;99.90;;;;;;477564;249;27457;-74
2023/04/03 01:47:37;;;;;;;8.25;5.03;;;1.10;99.90;;;;;;477645;249;27501;-75
2023/04/03 01:49:38;;;;;;;4.40;4.00;;;1.10;99.90;;;;;;477662;249;27926;-74
2023/04/03 01:51:39;;;;;;;4.25;3.60;;;1.10;99.90;;;;;;477660;249;27930;-74
2023/04/03 01:53:41;;;;;;;4.20;3.90;;;1.00;99.90;;;;;;477621;249;27935;-74
2023/04/03 01:55:42;;;;;;;5.65;4.03;;;1.00;99.90;;;;;;477514;249;28009;-74
2023/04/03 01:57:43;;;;;;;4.90;4.40;;;1.00;99.90;;;;;;477639;249;27512;-74
2023/04/03 01:59:44;;;;;;;5.05;3.60;;;1.00;99.90;;;;;;477631;249;27428;-75
2023/04/03 02:01:46;;;;;;;6.32;3.95;;;1.00;99.90;;;;;;477647;249;27453;-74
2023/04/03 02:03:47;;;;;;;5.10;3.58;;;1.00;99.90;;;;;;477622;249;27442;-74
2023/04/03 02:05:48;;;;;;;4.75;3.95;;;1.00;99.90;;;;;;477499;249;27468;-74
2023/04/03 02:07:49;;;;;;;5.75;3.97;;;1.00;99.90;;;;;;477663;249;27782;-75
2023/04/03 02:09:51;;;;;;;5.18;3.80;;;1.00;99.90;;;;;;477703;249;27437;-74
2023/04/03 02:11:52;;;;;;;6.40;3.65;;;1.00;99.90;;;;;;477635;249;27438;-74
2023/04/03 02:13:53;;;;;;;3.90;3.60;;;1.00;99.90;;;;;;477627;249;27557;-74
2023/04/03 02:15:54;;;;;;;4.90;3.87;;;1.00;99.90;;;;;;477558;249;27487;-74
2023/04/03 02:17:56;;;;;;;3.97;3.58;;;1.00;99.90;;;;;;477599;249;27999;-74
2023/04/03 02:19:57;;;;;;;3.62;3.33;;;1.10;99.90;;;;;;477645;249;27975;-74
2023/04/03 02:21:58;;;;;;;4.72;3.87;;;1.10;99.90;;;;;;477634;249;28074;-73
2023/04/03 02:23:59;;;;;;;5.03;4.15;;;1.00;99.90;;;;;;477627;249;27857;-74
2023/04/03 02:26:01;;;;;;;6.50;3.70;;;1.00;99.90;;;;;;477578;249;27505;-74
2023/04/03 02:28:02;;;;;;;3.87;3.50;;;1.00;99.90;;;;;;477649;249;27469;-75
2023/04/03 02:30:03;;;;;;;5.57;3.90;;;0.90;99.90;;;;;;477650;249;27466;-73
2023/04/03 02:32:04;;;;;;;7.53;4.05;;;1.00;99.90;;;;;;477645;249;27425;-73
2023/04/03 02:34:06;;;;;;;4.30;3.72;;;1.00;99.90;;;;;;477640;249;27385;-74
2023/04/03 02:36:07;;;;;;;5.10;4.05;;;1.00;99.90;;;;;;477581;249;27552;-74
2023/04/03 02:38:08;;;;;;;9.10;4.62;;;1.00;99.90;;;;;;477685;249;27785;-74
2023/04/03 02:40:11;;;;;;;5.20;3.72;;;1.00;99.90;;;;;;477673;249;27479;-74
2023/04/03 02:42:11;;;;;;;6.20;4.25;;;1.00;99.90;;;;;;477633;249;27430;-74
2023/04/03 02:44:12;;;;;;;5.72;3.90;;;1.00;99.90;;;;;;477666;249;27409;-74
2023/04/03 02:46:15;;;;;;;5.57;4.00;;;0.90;99.90;;;;;;477604;249;27916;-74
2023/04/03 02:48:16;;;;;;;4.70;3.75;;;0.90;99.90;;;;;;477560;249;28005;-74
2023/04/03 02:50:16;;;;;;;4.43;3.95;;;0.90;99.90;;;;;;477561;249;27936;-74
2023/04/03 02:52:17;;;;;;;4.37;3.80;;;0.90;99.90;;;;;;477651;249;28099;-74
2023/04/03 02:54:18;;;;;;;4.22;3.80;;;0.90;99.90;;;;;;477640;249;27391;-74
2023/04/03 02:56:20;;;;;;;5.05;3.55;;;0.90;99.90;;;;;;477590;249;27501;-74
2023/04/03 02:58:21;;;;;;;7.68;4.05;;;0.90;99.90;;;;;;477614;249;27509;-74
2023/04/03 03:00:22;;;;;;;7.85;4.20;;;0.90;99.90;;;;;;477668;249;27397;-73
2023/04/03 03:02:23;;;;;;;4.43;3.95;;;0.80;99.90;;;;;;477656;249;27593;-74
2023/04/03 03:04:25;;;;;;;5.43;4.12;;;0.80;99.90;;;;;;477548;249;27404;-74
2023/04/03 03:06:26;;;;;;;7.95;4.00;;;0.80;99.90;;;;;;477654;249;28029;-73
2023/04/03 03:08:27;;;;;;;4.00;3.60;;;0.90;99.90;;;;;;477655;249;28606;-73
2023/04/03 03:10:28;;;;;;;5.82;3.80;;;0.90;99.90;;;;;;477668;249;27871;-74
2023/04/03 03:12:29;;;;;;;4.12;3.83;;;0.90;99.90;;;;;;477631;249;27533;-74
2023/04/03 03:14:31;;;;;;;5.37;3.40;;;0.80;99.90;;;;;;477557;249;27766;-73
2023/04/03 03:16:32;;;;;;;4.40;3.47;;;0.80;99.90;;;;;;477619;249;27456;-73
2023/04/03 03:18:33;;;;;;;3.28;3.08;;;0.80;99.90;;;;;;477643;249;27454;-74
2023/04/03 03:20:34;;;;;;;3.53;3.22;;;0.80;99.90;;;;;;477670;249;27409;-74
2023/04/03 03:22:36;;;;;;;5.25;4.10;;;0.80;99.90;;;;;;477640;249;27512;-74
2023/04/03 03:24:37;;;;;;;10.77;8.60;;;0.70;99.90;;;;;;477539;249;27393;-74
2023/04/03 03:26:38;;;;;;;10.88;9.57;;;0.70;99.90;;;;;;477610;249;27446;-74
2023/04/03 03:28:40;;;;;;;6.35;4.70;;;0.70;99.90;;;;;;477650;249;27429;-74
2023/04/03 03:30:41;;;;;;;4.95;3.60;;;0.80;99.90;;;;;;477656;249;28075;-74
2023/04/03 03:32:42;;;;;;;4.57;4.18;;;0.80;99.90;;;;;;477663;249;27924;-74
2023/04/03 03:34:43;;;;;;;4.28;3.87;;;0.70;99.90;;;;;;477537;249;27917;-74
2023/04/03 03:36:45;;;;;;;4.12;3.72;;;0.80;99.90;;;;;;477625;249;28068;-74
2023/04/03 03:38:46;;;;;;;4.25;3.85;;;0.80;99.90;;;;;;477616;249;27397;-73
2023/04/03 03:40:47;;;;;;;4.95;4.45;;;0.70;99.90;;;;;;477646;249;27406;-74
2023/04/03 03:42:48;;;;;;;3.62;3.30;;;0.80;99.90;;;;;;477658;249;27456;-74
2023/04/03 03:44:49;;;;;;;5.47;4.00;;;0.80;99.90;;;;;;477574;249;27464;-73
2023/04/03 03:46:51;;;;;;;3.70;3.40;;;0.80;99.90;;;;;;477646;249;27434;-74
2023/04/03 03:48:52;;;;;;;6.43;3.62;;;0.70;99.90;;;;;;477630;249;27441;-74
2023/04/03 03:50:53;;;;;;;9.73;4.53;;;0.70;99.90;;;;;;477684;249;27406;-73
2023/04/03 03:52:54;;;;;;;5.37;3.90;;;0.70;99.90;;;;;;477689;249;27509;-74
2023/04/03 03:54:56;;;;;;;4.80;4.10;;;0.70;99.90;;;;;;477608;249;27478;-73
2023/04/03 03:56:57;;;;;;;5.10;3.58;;;0.70;99.90;;;;;;477651;249;27489;-74
2023/04/03 03:58:58;;;;;;;4.12;3.72;;;0.70;99.90;;;;;;477702;249;28084;-74
2023/04/03 04:01:00;;;;;;;3.50;3.20;;;0.60;99.90;;;;;;477691;249;27936;-74
2023/04/03 04:03:01;;;;;;;5.20;3.95;;;0.70;99.90;;;;;;477657;249;27928;-74
2023/04/03 04:05:02;;;;;;;3.53;3.22;;;0.60;99.90;;;;;;477595;249;27869;-74
2023/04/03 04:07:03;;;;;;;7.32;4.10;;;0.60;99.90;;;;;;477620;249;27444;-73
2023/04/03 04:09:04;;;;;;;4.20;3.35;;;0.60;99.90;;;;;;477650;249;27437;-75
2023/04/03 04:11:06;;;;;;;7.87;3.70;;;0.70;99.90;;;;;;477659;249;27482;-73
2023/04/03 04:13:07;;;;;;;3.85;3.55;;;0.70;99.90;;;;;;477592;249;27464;-74
2023/04/03 04:15:08;;;;;;;4.05;3.75;;;0.70;99.90;;;;;;477566;249;27486;-74
2023/04/03 04:17:10;;;;;;;4.80;3.42;;;0.60;99.90;;;;;;477591;249;27522;-73
2023/04/03 04:19:11;;;;;;;3.62;3.33;;;0.60;99.90;;;;;;477614;249;27768;-73
2023/04/03 04:21:12;;;;;;;5.65;3.40;;;0.60;99.90;;;;;;477668;249;27505;-74
2023/04/03 04:23:13;;;;;;;4.78;3.60;;;0.60;99.90;;;;;;477638;249;27466;-74
2023/04/03 04:25:15;;;;;;;4.95;3.80;;;0.60;99.90;;;;;;477605;249;27807;-74
2023/04/03 04:27:16;;;;;;;3.53;3.25;;;0.60;99.90;;;;;;477606;249;27960;-74
2023/04/03 04:29:17;;;;;;;3.65;3.28;;;0.50;99.90;;;;;;477673;249;28170;-74
2023/04/03 04:31:18;;;;;;;4.97;3.50;;;0.50;99.90;;;;;;477665;249;27845;-73
2023/04/03 04:33:20;;;;;;;4.00;3.70;;;0.50;99.90;;;;;;477634;249;27445;-74
2023/04/03 04:35:21;;;;;;;4.07;3.30;;;0.50;99.90;;;;;;477565;249;27460;-74
2023/04/03 04:37:22;;;;;;;4.32;3.45;;;0.50;99.90;;;;;;477621;249;27437;-73
2023/04/03 04:39:23;;;;;;;4.95;3.55;;;0.50;99.90;;;;;;477641;249;27437;-74
2023/04/03 04:41:25;;;;;;;3.25;3.05;;;0.50;99.90;;;;;;477660;249;27413;-74
2023/04/03 04:43:26;;;;;;;4.90;3.85;;;0.60;99.90;;;;;;477625;249;27438;-74
2023/04/03 04:45:27;;;;;;;6.22;4.20;;;0.50;99.90;;;;;;477553;249;27409;-73
2023/04/03 04:47:28;;;;;;;8.07;3.75;;;0.50;99.90;;;;;;477588;249;27444;-74
2023/04/03 04:49:29;;;;;;;3.67;3.37;;;0.50;99.90;;;;;;477651;249;27912;-73
2023/04/03 04:51:31;;;;;;;6.87;4.10;;;0.50;99.90;;;;;;477659;249;27425;-74
2023/04/03 04:53:32;;;;;;;10.25;5.45;;;0.40;99.90;;;;;;477621;249;27441;-74
2023/04/03 04:55:33;;;;;;;6.15;5.18;;;0.40;99.90;;;;;;477559;249;27390;-74
2023/04/03 04:57:35;;;;;;;4.50;4.07;;;0.40;99.90;;;;;;477609;249;27500;-74
2023/04/03 04:59:36;;;;;;;3.87;3.45;;;0.40;99.90;;;;;;477633;249;27781;-74
2023/04/03 05:01:37;;;;;;;7.57;3.55;;;0.40;99.90;;;;;;477635;249;28000;-73
2023/04/03 05:03:38;;;;;;;4.50;3.70;;;0.40;99.90;;;;;;477636;249;27952;-74
2023/04/03 05:05:40;;;;;;;8.80;3.90;;;0.40;99.90;;;;;;477546;249;29023;-73
2023/04/03 05:07:41;;;;;;;4.28;3.87;;;0.50;99.90;;;;;;477613;249;27941;-73
2023/04/03 05:09:42;;;;;;;4.53;3.75;;;0.40;99.90;;;;;;477673;249;27532;-73
2023/04/03 05:11:43;;;;;;;4.65;3.90;;;0.40;99.90;;;;;;477653;249;27385;-73
2023/04/03 05:13:45;;;;;;;4.55;3.83;;;0.40;99.90;;;;;;477634;249;27516;-74
2023/04/03 05:15:46;;;;;;;4.53;3.60;;;0.40;99.90;;;;;;477591;249;27413;-74
2023/04/03 05:17:47;;;;;;;3.35;3.12;;;0.40;99.90;;;;;;477621;249;27513;-74
2023/04/03 05:19:48;;;;;;;4.55;3.37;;;0.40;99.90;;;;;;477673;249;27770;-74
2023/04/03 05:21:50;;;;;;;4.40;3.92;;;0.40;99.90;;;;;;477691;249;27457;-74
2023/04/03 05:23:51;;;;;;;3.72;3.42;;;0.40;99.90;;;;;;477661;249;27507;-74
2023/04/03 05:25:52;;;;;;;3.97;3.62;;;0.40;99.90;;;;;;477602;249;27481;-74
2023/04/03 05:27:53;;;;;;;4.30;3.90;;;0.40;99.90;;;;;;477625;249;27496;-73
2023/04/03 05:29:55;;;;;;;3.30;3.00;;;0.40;99.90;;;;;;477668;249;28042;-74
2023/04/03 05:31:56;;;;;;;3.85;3.45;;;0.40;99.90;;;;;;477645;249;27882;-74
2023/04/03 05:33:57;;;;;;;5.40;4.20;;;0.40;99.90;;;;;;477619;249;27919;-74
2023/04/03 05:35:58;;;;;;;4.07;3.67;;;0.40;99.90;;;;;;477588;249;27840;-73
2023/04/03 05:38:00;;;;;;;6.15;4.03;;;0.40;99.90;;;;;;477658;249;27393;-73
2023/04/03 05:40:01;;;;;;;3.65;3.30;;;0.40;99.90;;;;;;477653;249;27453;-73
2023/04/03 05:42:02;;;;;;;6.57;4.10;;;0.50;99.90;;;;;;477677;249;27470;-73
2023/04/03 05:44:03;;;;;;;3.80;3.10;;;0.50;99.90;;;;;;477647;249;27437;-74
2023/04/03 05:46:05;;;;;;;3.92;3.40;;;0.50;99.90;;;;;;477589;249;27481;-74
2023/04/03 05:48:06;;;;;;;5.53;3.20;;;0.50;99.90;;;;;;477630;249;27473;-74
2023/04/03 05:50:07;;;;;;;3.53;3.22;;;0.60;99.90;;;;;;477672;249;27888;-73
2023/04/03 05:52:08;;;;;;;3.30;3.00;;;0.60;99.90;;;;;;477652;249;27862;-74
2023/04/03 05:54:10;;;;;;;3.78;3.25;;;0.60;99.90;;;;;;477636;249;28028;-74
2023/04/03 05:56:11;;;;;;;3.75;3.37;;;0.70;99.90;;;;;;477617;249;27517;-73
2023/04/03 05:58:12;;;;;;;3.58;3.10;;;0.70;99.90;;;;;;477645;249;27524;-73
2023/04/03 06:00:15;;;;;;;3.40;3.10;;;0.80;99.90;;;;;;477663;249;27436;-74
2023/04/03 06:02:15;;;;;;;7.78;3.45;;;0.90;99.90;;;;;;477546;249;27389;-74
2023/04/03 06:04:16;;;;;;;7.05;3.60;;;0.90;99.90;;;;;;477617;249;27424;-74
2023/04/03 06:06:17;;;;;;;4.45;3.50;;;0.90;99.90;;;;;;477585;249;27488;-74
2023/04/03 06:08:19;;;;;;;7.35;3.35;;;0.90;99.90;;;;;;477641;249;27523;-74
2023/04/03 06:10:20;;;;;;;3.33;3.03;;;1.00;99.90;;;;;;477670;249;27546;-74
2023/04/03 06:12:21;;;;;;;5.05;3.50;;;1.00;99.90;;;;;;477626;249;27441;-74
2023/04/03 06:14:22;;;;;;;3.78;2.80;;;1.00;99.90;;;;;;477533;249;27537;-74
2023/04/03 06:16:24;;;;;;;5.43;3.15;;;1.00;99.90;;;;;;477593;249;27469;-73
2023/04/03 06:18:25;;;;;;;3.92;3.20;;;1.00;99.90;;;;;;477622;249;27480;-73
2023/04/03 06:20:26;;;;;;;3.45;3.12;;;1.00;99.90;;;;;;477631;249;27540;-74
2023/04/03 06:22:29;;;;;;;4.65;3.62;;;1.00;99.90;;;;;;477615;249;27398;-74
2023/04/03 06:24:28;;;;;;;5.50;3.75;;;1.00;99.90;;;;;;477461;249;27490;-74
2023/04/03 06:26:30;;;;;;;6.03;3.50;;;1.00;99.90;;;;;;477643;249;27853;-73
2023/04/03 06:28:31;;;;;;;5.10;3.70;;;1.10;99.90;;;;;;477630;249;27956;-74
2023/04/03 06:30:32;;;;;;;5.50;3.55;;;1.10;99.90;;;;;;477648;249;28265;-73
2023/04/03 06:32:33;;;;;;;5.00;3.50;;;1.20;99.90;;;;;;477664;249;27956;-74
2023/04/03 06:34:35;;;;;;;3.83;3.42;;;1.30;99.90;;;;;;477609;249;27429;-73
2023/04/03 06:36:36;;;;;;;3.72;3.42;;;1.40;99.90;;;;;;477675;249;27401;-74
2023/04/03 06:38:37;;;;;;;4.57;3.70;;;1.50;99.90;;;;;;477664;249;27552;-74
2023/04/03 06:40:38;;;;;;;4.28;3.37;;;1.50;99.90;;;;;;477694;249;27533;-73
2023/04/03 06:42:40;;;;;;;5.00;3.72;;;1.50;99.90;;;;;;477711;249;27533;-74
2023/04/03 06:44:41;;;;;;;4.30;3.40;;;1.60;99.90;;;;;;477586;249;27465;-74
2023/04/03 06:46:42;;;;;;;7.20;3.60;;;1.60;99.90;;;;;;477618;249;27409;-73
2023/04/03 06:48:43;;;;;;;5.82;3.65;;;1.60;99.90;;;;;;477624;249;27448;-74
2023/04/03 06:50:45;;;;;;;6.68;3.60;;;1.60;99.90;;;;;;477687;249;27810;-73
2023/04/03 06:52:46;;;;;;;4.00;3.60;;;1.70;99.90;;;;;;477682;249;27405;-74
2023/04/03 06:54:47;;;;;;;4.18;3.35;;;1.80;99.90;;;;;;477608;249;27990;-75
2023/04/03 06:56:49;;;;;;;9.00;3.60;;;1.90;99.90;;;;;;477633;249;27933;-74
2023/04/03 06:58:51;;;;;;;5.20;3.37;;;2.00;99.90;;;;;;477614;249;27917;-74
2023/04/03 07:00:51;;;;;;;5.07;3.37;;;2.10;99.90;;;;;;477586;249;28064;-74
2023/04/03 07:02:52;;;;;;;6.72;3.12;;;2.20;99.90;;;;;;477664;249;27469;-73
2023/04/03 07:04:54;;;;;;;3.83;3.40;;;2.30;99.90;;;;;;477591;249;27465;-74
2023/04/03 07:06:55;;;;;;;5.78;3.60;;;2.30;99.90;;;;;;477622;249;27389;-74
2023/04/03 07:08:56;;;;;;;4.00;3.60;;;2.40;99.90;;;;;;477613;249;27552;-74
2023/04/03 07:10:57;;;;;;;7.18;3.60;;;2.40;99.90;;;;;;477674;249;27427;-74
2023/04/03 07:12:58;;;;;;;5.22;3.97;;;2.40;99.90;;;;;;477638;249;27505;-74
2023/04/03 07:15:00;;;;;;;5.43;3.92;;;2.30;99.90;;;;;;477562;249;27955;-74
2023/04/03 07:17:01;;;;;;;4.82;3.97;;;2.40;99.90;;;;;;477613;249;27912;-74
2023/04/03 07:19:02;;;;;;;6.68;3.90;;;2.50;99.90;;;;;;477609;249;27441;-74
2023/04/03 07:21:03;;;;;;;5.62;3.55;;;2.60;99.90;;;;;;477642;249;27558;-74
2023/04/03 07:23:05;;;;;;;7.05;3.80;;;2.60;99.90;;;;;;477625;249;27414;-74
2023/04/03 07:25:07;;;;;;;4.65;3.85;;;2.60;99.90;;;;;;477561;249;27469;-74
2023/04/03 07:27:08;;;;;;;6.68;4.10;;;2.70;99.90;;;;;;477612;249;27466;-74
2023/04/03 07:29:08;;;;;;;4.45;3.70;;;2.80;99.90;;;;;;477632;249;27524;-74
2023/04/03 07:31:11;;;;;;;5.00;3.80;;;2.70;99.90;;;;;;477637;249;27425;-74
2023/04/03 07:33:11;;;;;;;7.28;4.45;;;2.80;99.90;;;;;;477566;249;27433;-74
2023/04/03 07:35:12;;;;;;;8.30;4.15;;;2.90;99.90;;;;;;477568;249;27524;-74
2023/04/03 07:37:14;;;;;;;11.75;4.85;;;3.00;99.90;;;;;;477632;249;27903;-74
2023/04/03 07:39:15;;;;;;;6.00;4.05;;;3.20;99.90;;;;;;477650;249;27894;-74
2023/04/03 07:41:17;;;;;;;5.22;3.55;;;3.30;99.90;;;;;;477645;249;28024;-74
2023/04/03 07:43:17;;;;;;;9.27;4.12;;;3.50;99.90;;;;;;477596;249;27406;-74
2023/04/03 07:45:19;;;;;;;5.85;4.10;;;3.50;99.90;;;;;;477564;249;27425;-74
2023/04/03 07:47:20;;;;;;;5.57;3.95;;;3.00;99.90;;;;;;477650;249;27416;-74
2023/04/03 07:49:22;;;;;;;7.22;3.87;;;3.00;99.90;;;;;;477638;249;27450;-74
2023/04/03 07:51:24;;;;;;;5.60;3.70;;;3.20;99.90;;;;;;477564;249;27456;-74
2023/04/03 07:53:24;;;;;;;5.50;3.50;;;3.20;99.90;;;;;;477529;249;27406;-74
2023/04/03 07:55:25;;;;;;;5.43;3.62;;;3.20;99.90;;;;;;477579;249;27459;-74
2023/04/03 07:57:26;;;;;;;5.35;3.85;;;3.40;99.90;;;;;;477645;249;27438;-74
2023/04/03 07:59:27;;;;;;;4.45;3.40;;;3.50;99.90;;;;;;477648;249;27480;-74
2023/04/03 08:01:32;;;;;;;6.75;4.15;;;3.50;99.90;;;;;;477636;249;27436;-74
2023/04/03 08:03:30;;;;;;;5.70;3.10;;;3.40;99.90;;;;;;477383;249;27968;-74
2023/04/03 08:05:31;;;;;;;4.53;3.20;;;3.30;99.90;;;;;;477582;249;28004;-74
2023/04/03 08:07:32;;;;;;;5.18;3.22;;;3.40;99.90;;;;;;477656;249;28706;-74
2023/04/03 08:09:34;;;;;;;4.87;3.50;;;3.50;99.90;;;;;;477697;249;27386;-74
2023/04/03 08:11:36;;;;;;;4.25;3.10;;;3.60;99.90;;;;;;477628;249;27562;-74
2023/04/03 08:13:36;;;;;;;4.32;2.87;;;3.60;99.90;;;;;;477562;249;27481;-74
2023/04/03 08:15:37;;;;;;;8.25;3.00;;;3.50;99.90;;;;;;477558;249;27436;-74
2023/04/03 08:17:39;;;;;;;4.78;3.50;;;3.40;99.90;;;;;;477283;249;27758;-74
2023/04/03 08:19:40;;;;;;;4.57;3.28;;;3.30;99.90;;;;;;477673;249;27470;-74
2023/04/03 08:21:44;;;;;;;3.80;2.95;;;3.30;99.90;;;;;;477643;249;27547;-74
2023/04/03 08:23:45;;;;;;;4.37;3.20;;;3.30;99.90;;;;;;477678;249;27948;-74
2023/04/03 08:25:46;;;;;;;4.43;3.20;;;3.30;99.90;;;;;;477606;249;27877;-74
2023/04/03 08:27:47;;;;;;;3.85;2.83;;;3.50;99.90;;;;;;477618;249;27924;-74
2023/04/03 08:29:49;;;;;;;4.05;3.15;;;3.60;99.90;;;;;;477655;249;27977;-74
2023/04/03 08:31:50;;;;;;;5.55;3.45;;;3.90;99.90;;;;;;477647;249;27429;-74
2023/04/03 08:33:51;;;;;;;3.95;2.83;;;3.90;99.90;;;;;;477640;249;27442;-74
2023/04/03 08:35:52;;;;;;;3.60;3.20;;;4.10;99.90;;;;;;477584;249;27461;-74
2023/04/03 08:37:54;;;;;;;4.90;2.90;;;4.30;99.90;;;;;;477617;249;27505;-74
2023/04/03 08:39:55;;;;;;;3.28;2.95;;;4.40;99.90;;;;;;477642;249;27782;-74
2023/04/03 08:41:56;;;;;;;2.95;2.50;;;4.20;99.90;;;;;;477630;249;27394;-74
2023/04/03 08:43:57;;;;;;;5.62;2.83;;;4.30;99.90;;;;;;477644;249;27528;-74
2023/04/03 08:45:59;;;;;;;8.68;2.90;;;4.20;99.90;;;;;;477576;249;27402;-74
2023/04/03 08:48:00;;;;;;;3.67;3.00;;;4.30;99.90;;;;;;477618;249;27522;-74
2023/04/03 08:50:01;;;;;;;4.90;2.80;;;4.50;99.90;;;;;;477668;249;28013;-74
2023/04/03 08:52:03;;;;;;;5.00;2.80;;;4.70;99.90;;;;;;477634;249;27975;-74
2023/04/03 08:54:04;;;;;;;4.82;2.50;;;4.50;99.90;;;;;;477639;249;28008;-74
2023/04/03 08:56:06;;;;;;;5.15;3.15;;;4.60;99.90;;;;;;477584;249;27476;-74
2023/04/03 08:58:06;;;;;;;4.12;2.60;;;4.80;99.90;;;;;;477624;249;27524;-74
2023/04/03 09:00:08;;;;;;;4.65;2.70;;;5.00;99.90;;;;;;477651;249;27482;-74
2023/04/03 09:02:09;;;;;;;7.68;2.78;;;5.00;99.90;;;;;;477662;249;27411;-74
2023/04/03 09:04:10;;;;;;;6.28;3.20;;;5.00;99.90;;;;;;477658;249;27488;-74
2023/04/03 09:06:13;;;;;;;5.45;2.95;;;4.90;99.90;;;;;;477600;249;27429;-74
2023/04/03 09:08:13;;;;;;;2.35;2.15;;;5.10;99.90;;;;;;477525;249;27948;-75
2023/04/03 09:10:14;;;;;;;5.68;2.75;;;5.00;99.90;;;;;;477682;249;28104;-74
2023/04/03 09:12:15;;;;;;;2.85;2.58;;;5.10;99.90;;;;;;477644;249;27390;-74
2023/04/03 09:14:16;;;;;;;6.15;3.33;;;5.20;99.90;;;;;;477621;249;27438;-74
2023/04/03 09:16:18;;;;;;;4.60;2.70;;;5.30;99.90;;;;;;477557;249;27394;-74
2023/04/03 09:18:19;;;;;;;4.78;2.70;;;5.10;99.90;;;;;;477635;249;27449;-74
2023/04/03 09:20:20;;;;;;;7.78;2.80;;;5.00;99.90;;;;;;477656;249;27825;-74
2023/04/03 09:22:22;;;;;;;4.45;2.53;;;4.90;99.90;;;;;;477648;249;27442;-74
2023/04/03 09:24:23;;;;;;;4.57;2.65;;;4.80;99.90;;;;;;477572;249;27920;-74
2023/04/03 09:26:25;;;;;;;2.87;2.60;;;4.90;99.90;;;;;;477621;249;27945;-74
2023/04/03 09:28:25;;;;;;;4.68;2.70;;;5.10;99.90;;;;;;477567;249;27551;-75
2023/04/03 09:30:27;;;;;;;3.03;2.53;;;4.80;99.90;;;;;;477657;249;27500;-75
2023/04/03 09:32:28;;;;;;;5.28;2.90;;;5.00;99.90;;;;;;477663;249;27452;-75
2023/04/03 09:34:29;;;;;;;4.45;2.90;;;5.00;99.90;;;;;;477593;249;27516;-75
2023/04/03 09:36:30;;;;;;;4.55;2.30;;;5.00;99.90;;;;;;477640;249;27398;-75
2023/04/03 09:38:33;;;;;;;5.97;2.90;;;4.80;99.90;;;;;;477647;249;27948;-75
2023/04/03 09:40:34;;;;;;;3.70;2.97;;;4.70;99.90;;;;;;477571;249;27902;-75
2023/04/03 09:42:34;;;;;;;4.72;2.92;;;4.90;99.90;;;;;;477613;249;27850;-75
2023/04/03 09:44:35;;;;;;;6.82;2.92;;;4.90;99.90;;;;;;477589;249;27433;-75
2023/04/03 09:46:37;;;;;;;5.00;3.00;;;5.00;99.90;;;;;;477651;249;27479;-75
2023/04/03 09:48:38;;;;;;;7.35;3.15;;;5.00;99.90;;;;;;477659;249;27418;-75
2023/04/03 09:50:40;;;;;;;7.50;3.10;;;4.80;99.90;;;;;;477699;249;27441;-74
2023/04/03 09:52:40;;;;;;;4.35;2.60;;;4.80;99.90;;;;;;477703;249;27511;-74
2023/04/03 09:54:42;;;;;;;4.00;3.25;;;4.70;99.90;;;;;;477575;249;28002;-74
2023/04/03 09:56:43;;;;;;;5.93;2.85;;;4.80;99.90;;;;;;477573;249;29019;-75
2023/04/03 09:58:44;;;;;;;4.95;3.15;;;5.00;99.90;;;;;;477658;249;27488;-75
2023/04/03 10:00:45;;;;;;;5.47;3.35;;;5.30;99.90;;;;;;477675;249;27433;-75
2023/04/03 10:02:46;;;;;;;11.25;3.37;;;5.20;99.90;;;;;;477649;249;27470;-74
2023/04/03 10:04:48;;;;;;;4.10;2.62;;;5.40;99.90;;;;;;477555;249;27461;-75
2023/04/03 10:06:49;;;;;;;4.60;2.87;;;5.40;99.90;;;;;;477625;249;27394;-74
2023/04/03 10:08:50;;;;;;;5.78;2.78;;;5.40;99.90;;;;;;477662;249;27846;-75
2023/04/03 10:10:51;;;;;;;4.85;2.85;;;5.40;99.90;;;;;;477674;249;27925;-75
2023/04/03 10:12:53;;;;;;;4.35;2.80;;;5.40;99.90;;;;;;477648;249;27401;-74
2023/04/03 10:14:57;;;;;;;2.40;2.30;;;5.40;99.90;;;;;;477545;249;27542;-74
2023/04/03 10:16:58;;;;;;;3.50;2.85;;;5.40;99.90;;;;;;477661;249;27406;-74
2023/04/03 10:19:01;;;;;;;4.05;2.50;;;5.30;99.90;;;;;;477654;249;27430;-75
2023/04/03 10:21:01;;;;;;;4.03;2.50;;;5.10;99.90;;;;;;477596;249;27513;-75
2023/04/03 10:23:02;;;;;;;8.60;2.78;;;5.10;99.90;;;;;;477632;249;27507;-74
2023/04/03 10:25:04;;;;;;;5.97;2.65;;;5.20;99.90;;;;;;477520;249;27492;-75
2023/04/03 10:27:05;;;;;;;4.37;2.75;;;5.40;99.90;;;;;;477696;249;27973;-75
2023/04/03 10:29:06;;;;;;;3.22;2.37;;;5.40;99.90;;;;;;477675;249;28040;-75
2023/04/03 10:31:08;;;;;;;4.35;2.50;;;5.80;99.60;;;;;;477662;249;27397;-75
2023/04/03 10:33:09;;;;;;;3.15;2.30;;;6.00;99.90;;;;;;477623;249;27473;-75
2023/04/03 10:35:10;;;;;;;2.87;2.25;;;6.40;99.50;;;;;;477633;249;27408;-75
2023/04/03 10:37:11;;;;;;;4.13;2.13;;;6.70;98.00;;;;;;477665;249;27492;-75
2023/04/03 10:39:12;;;;;;;2.23;2.00;;;6.90;97.20;;;;;;477655;249;28035;-75